Latest Weather Observations for Laverton

IDW60801

Issued at 10:03 pm WST Tuesday 12 December 2017 (issued every 30 minutes, with the page automatically refreshed every 10 minutes)

About weather observations | Map of weather stations | Latest weather observations for WA | Other Formats
Station Details ID: 012305 Name: LAVERTON AERO Lat: -28.61 Lon: 122.42 Height: 464.3 m
Data from the previous 72 hours. | See also: Recent months at Laverton
Date/Time
WST
Temp
°C
App
Temp
°C
Dew
Point
°C
Rel
Hum
%
Delta-T
°C
Wind Press
QNH
hPa
Press
MSL
hPa
Rain since
9am
mm
Dir  Spd
km/h
Gust
km/h
Spd
kts
Gust
kts
12/10:00pm 29.0 24.5 14.8 42 8.8 S 32 41 17 22 1009.5 1006.5 0.0
12/09:30pm 30.7 27.2 10.1 28 12.0 WSW 19 50 10 27 1009.1 1006.1 0.0
12/09:00pm 29.8 29.6 13.1 36 10.1 NNW 6 9 3 5 1008.6 1005.6 0.0
12/08:30pm 30.1 29.7 13.0 35 10.3 N 7 9 4 5 1008.3 1005.3 0.0
12/08:00pm 32.5 30.6 7.4 21 14.1 SW 7 11 4 6 1007.9 1004.9 0.0
12/07:30pm 33.9 30.7 7.0 19 15.1 SW 13 17 7 9 1007.6 1004.5 0.0
12/07:00pm 34.7 30.2 6.1 17 15.9 WSW 19 24 10 13 1007.1 1004.1 0.0
12/06:30pm 35.7 29.7 5.1 15 16.8 W 26 41 14 22 1006.8 1003.8 0.0
12/06:00pm 36.1 30.5 5.4 15 17.0 W 24 33 13 18 1006.6 1003.6 0.0
12/05:30pm 36.9 32.2 7.8 17 16.7 WNW 22 30 12 16 1006.5 1003.5 0.0
12/05:00pm 36.9 32.1 8.7 18 16.5 NW 24 35 13 19 1006.4 1003.4 0.0
12/04:30pm 37.2 31.1 8.1 17 16.8 W 30 44 16 24 1006.3 1003.3 0.0
12/04:04pm 36.7 31.5 10.1 20 15.8 WNW 28 46 15 25 1006.4 1003.4 0.0
12/04:00pm 37.1 32.1 11.1 21 15.7 WNW 28 39 15 21 1006.5 1003.5 0.0
12/03:30pm 36.7 32.1 12.2 23 15.0 NW 28 41 15 22 1006.8 1003.8 0.0
12/03:14pm 36.9 32.5 13.0 24 14.8 WNW 28 46 15 25 1007.0 1004.0 0.0
12/03:00pm 36.8 32.2 13.5 24 14.6 WNW 30 43 16 23 1007.4 1004.3 0.0
12/02:33pm 36.6 32.4 13.4 25 14.5 NW 28 48 15 26 1007.7 1004.6 0.0
12/02:30pm 37.7 33.7 13.0 23 15.4 NW 26 43 14 23 1007.8 1004.7 0.0
12/02:08pm 37.6 33.2 12.9 23 15.3 WNW 28 57 15 31 1008.0 1005.0 0.0
12/02:00pm 36.8 32.4 12.9 24 14.8 NW 28 44 15 24 1008.3 1005.3 0.0
12/01:43pm 35.6 31.1 12.5 24 14.2 NW 28 46 15 25 1008.4 1005.4 0.0
12/01:30pm 36.6 32.2 14.0 26 14.2 WNW 30 39 16 21 1008.6 1005.6 0.0
12/01:00pm 36.3 33.7 13.7 25 14.1 NW 20 35 11 19 1009.0 1006.0 0.0
12/12:30pm 36.1 33.1 15.8 30 13.1 NNW 26 39 14 21 1009.4 1006.4 0.0
12/12:00pm 35.2 32.1 16.5 33 12.1 NNW 28 39 15 21 1010.0 1007.0 0.0
12/11:30am 34.7 33.1 17.4 35 11.3 NNW 22 37 12 20 1010.4 1007.4 0.0
12/11:00am 33.0 30.2 17.2 39 10.3 NNW 28 39 15 21 1010.9 1007.9 0.0
12/10:30am 32.2 29.9 17.7 42 9.5 NNW 26 41 14 22 1011.3 1008.3 0.0
12/10:00am 31.1 29.5 19.1 48 8.0 N 26 35 14 19 1011.7 1008.8 0.0
12/09:30am 29.2 27.1 18.9 53 6.8 NNW 28 37 15 20 1012.2 1009.2 0.0
12/09:00am 26.0 24.9 19.4 67 4.3 NNE 24 39 13 21 1011.5 1008.5 1.0
12/08:40am 26.2 24.1 18.9 64 4.8 N 28 46 15 25 1012.8 1009.8 1.0
12/08:30am 25.8 24.9 19.0 66 4.4 N 22 32 12 17 1011.8 1008.9 1.0
12/08:00am 27.1 25.1 18.4 59 5.6 NNW 26 35 14 19 1012.7 1009.7 1.0
12/07:30am 27.0 25.3 18.0 58 5.8 NNW 24 35 13 19 1012.4 1009.4 1.0
12/07:00am 25.8 24.3 18.5 64 4.7 NNW 24 32 13 17 1012.3 1009.3 1.0
12/06:30am 25.0 23.4 18.4 66 4.3 N 24 32 13 17 1011.6 1008.6 1.0
12/06:00am 24.3 23.7 18.5 70 3.7 N 19 30 10 16 1011.4 1008.4 1.0
12/05:30am 23.8 23.7 18.7 73 3.3 NNW 17 24 9 13 1011.0 1008.0 1.0
12/05:00am 23.7 23.0 18.6 73 3.3 N 20 28 11 15 1010.9 1007.9 1.0
12/04:30am 23.9 23.9 18.1 70 3.7 NNW 15 24 8 13 1010.9 1007.9 1.0
12/04:00am 23.5 24.4 18.4 73 3.3 N 11 17 6 9 1010.7 1007.7 1.0
12/03:30am 23.7 24.6 18.4 72 3.4 NNW 11 19 6 10 1010.4 1007.4 1.0
12/03:00am 24.3 24.6 18.0 68 4.0 NNW 13 24 7 13 1010.2 1007.2 1.0
12/02:30am 23.8 24.8 17.8 69 3.8 NNW 9 13 5 7 1010.2 1007.2 1.0
12/02:00am 23.4 24.5 18.1 72 3.4 N 9 13 5 7 1010.3 1007.3 1.0
12/01:30am 23.4 23.9 18.3 73 3.3 N 13 19 7 10 1009.9 1006.9 1.0
12/01:00am 23.1 23.3 18.6 76 2.9 N 15 19 8 10 1009.9 1006.9 1.0
12/12:30am 23.4 23.2 18.5 74 3.1 N 17 22 9 12 1010.1 1007.1 1.0
12/12:00am 23.8 23.3 18.7 73 3.3 N 19 26 10 14 1010.6 1007.6 1.0
 
Date/Time
WST
Temp
°C
App
Temp
°C
Dew
Point
°C
Rel
Hum
%
Delta-T
°C
Wind Press
QNH
hPa
Press
MSL
hPa
Rain since
9am
mm
Dir  Spd
km/h
Gust
km/h
Spd
kts
Gust
kts
11/11:30pm 24.2 23.6 18.4 70 3.7 N 19 28 10 15 1010.7 1007.7 1.0
11/11:00pm 24.9 24.0 18.1 66 4.4 NNE 20 30 11 16 1011.1 1008.1 1.0
11/10:30pm 24.8 24.2 17.5 64 4.6 N 17 24 9 13 1011.7 1008.8 1.0
11/10:00pm 24.2 23.9 17.4 65 4.3 N 15 20 8 11 1011.6 1008.6 1.0
11/09:30pm 24.6 23.9 17.3 64 4.6 NNE 17 22 9 12 1010.7 1007.7 1.0
11/09:00pm 25.0 24.2 17.2 62 4.9 NNE 17 24 9 13 1010.6 1007.6 1.0
11/08:30pm 25.6 24.0 17.5 61 5.2 NNE 22 33 12 18 1010.7 1007.7 1.0
11/08:05pm 24.9 22.3 18.6 68 4.1 N 30 48 16 26 1011.4 1008.4 1.0
11/08:00pm 24.9 22.0 18.8 69 4.0 N 32 48 17 26 1011.1 1008.1 1.0
11/07:48pm 25.3 22.8 18.0 64 4.7 N 28 52 15 28 1011.5 1008.5 1.0
11/07:30pm 27.5 25.0 15.2 47 7.6 N 22 30 12 16 1010.7 1007.7 1.0
11/07:03pm 26.2 22.4 17.3 58 5.7 NNE 33 52 18 28 1010.1 1007.1 1.0
11/07:00pm 26.0 22.0 17.6 60 5.4 NNE 35 52 19 28 1010.2 1007.2 1.0
11/06:58pm 25.7 21.8 17.9 62 5.0 NNE 35 52 19 28 1010.4 1007.4 1.0
11/06:30pm 24.6 20.8 19.0 71 3.6 N 37 52 20 28 1011.5 1008.5 1.0
11/06:06pm 25.9 23.1 18.3 63 4.9 NNW 30 67 16 36 1011.2 1008.2 1.0
11/06:04pm 26.7 25.3 18.0 59 5.6 NW 22 67 12 36 1011.3 1008.3 1.0
11/06:00pm 26.1 26.1 18.2 61 5.1 WNW 15 22 8 12 1010.9 1007.9 0.8
11/05:32pm 30.1 27.5 15.8 42 9.0 NW 24 54 13 29 1010.8 1007.8 0.6
11/05:30pm 30.7 28.8 15.2 39 9.7 NW 19 39 10 21 1010.7 1007.7 0.6
11/05:00pm 30.6 31.1 15.5 40 9.5 NNE 7 11 4 6 1009.2 1006.2 0.6
11/04:30pm 29.9 25.9 15.2 41 9.2 NNE 30 43 16 23 1008.8 1005.8 0.6
11/04:16pm 31.1 27.3 16.7 42 9.2 NE 32 72 17 39 1009.4 1006.4 0.6
11/04:15pm 30.7 27.5 16.3 42 9.2 NE 28 72 15 39 1009.2 1006.2 0.6
11/04:13pm 31.1 29.9 17.4 44 8.9 ENE 20 61 11 33 1009.3 1006.3 0.6
11/04:00pm 34.6 33.1 16.4 33 11.8 E 19 22 10 12 1009.0 1006.0 0.6
11/03:30pm 30.2 26.5 15.9 42 9.0 SSE 30 44 16 24 1009.7 1006.6 0.6
11/03:18pm 31.0 30.3 19.4 50 7.7 S 22 41 12 22 1009.8 1006.7 0.6
11/03:00pm 36.1 35.2 13.6 26 14.1 NNW 11 20 6 11 1010.0 1007.0 0.0
11/02:30pm 36.7 34.6 13.5 25 14.5 NNE 17 28 9 15 1010.5 1007.5 0.0
11/02:00pm 37.2 35.6 13.9 25 14.7 NNE 15 30 8 16 1010.9 1007.9 0.0
11/01:30pm 36.1 34.2 14.1 26 13.8 NW 17 24 9 13 1011.4 1008.4 0.0
11/01:00pm 36.5 35.5 13.3 25 14.4 NNE 11 22 6 12 1011.8 1008.9 0.0
11/12:30pm 34.5 32.5 13.9 29 12.8 WNW 17 22 9 12 1012.4 1009.4 0.0
11/12:00pm 36.1 34.6 15.2 28 13.3 NNW 17 28 9 15 1012.9 1009.9 0.0
11/11:30am 33.4 31.2 14.9 32 11.6 NW 20 30 11 16 1013.5 1010.5 0.0
11/11:00am 33.5 32.1 15.5 34 11.4 NNW 17 28 9 15 1014.0 1011.1 0.0
11/10:30am 31.3 30.1 16.1 40 9.7 N 17 26 9 14 1014.7 1011.7 0.0
11/10:00am 30.8 29.4 17.1 43 8.8 NNW 20 30 11 16 1015.1 1012.1 0.0
11/09:30am 29.4 28.4 17.9 50 7.5 N 20 30 11 16 1015.4 1012.4 0.0
11/09:00am 28.1 25.9 17.9 54 6.6 N 26 37 14 20 1015.6 1012.7 0.8
11/08:30am 26.7 24.4 17.5 57 5.9 NNW 26 39 14 21 1016.1 1013.2 0.8
11/08:00am 26.7 23.9 17.2 56 6.0 N 28 39 15 21 1016.3 1013.4 0.8
11/07:30am 26.0 24.1 17.6 60 5.4 N 24 32 13 17 1016.6 1013.6 0.8
11/07:00am 25.0 22.7 17.7 64 4.7 NNE 26 35 14 19 1015.9 1013.0 0.8
11/06:30am 24.1 21.7 17.4 66 4.2 NNE 26 44 14 24 1015.9 1013.0 0.8
11/06:00am 23.3 19.9 16.8 67 4.1 NNE 30 39 16 21 1015.5 1012.5 0.8
11/05:43am 23.2 20.1 16.5 66 4.2 NNE 28 46 15 25 1015.5 1012.5 0.8
11/05:30am 23.0 19.8 16.3 66 4.2 NNE 28 37 15 20 1015.7 1012.8 0.8
11/05:00am 22.8 19.4 15.9 65 4.2 NNE 28 41 15 22 1015.5 1012.5 0.8
11/04:30am 23.2 19.7 15.5 62 4.7 NNE 28 41 15 22 1015.3 1012.3 0.8
11/04:00am 23.7 18.9 14.7 57 5.4 NNE 33 46 18 25 1015.2 1012.2 0.8
11/03:33am 23.8 20.1 15.0 57 5.4 NNE 28 46 15 25 1015.0 1012.0 0.8
11/03:30am 23.8 19.3 15.0 57 5.4 NNE 32 46 17 25 1014.9 1011.9 0.8
11/03:00am 23.7 19.7 15.2 59 5.2 NNE 30 43 16 23 1015.0 1012.0 0.8
11/02:30am 23.7 18.9 15.7 61 4.9 NNE 35 57 19 31 1014.8 1011.8 0.8
11/02:22am 24.0 18.5 15.8 60 5.1 NNE 39 57 21 31 1014.7 1011.7 0.8
11/02:00am 24.5 19.2 15.4 57 5.6 NNE 37 52 20 28 1014.6 1011.6 0.8
11/01:42am 25.4 19.8 14.5 51 6.6 NNE 37 56 20 30 1014.6 1011.6 0.8
11/01:30am 25.9 20.6 14.1 48 7.1 NNE 35 50 19 27 1014.4 1011.4 0.8
11/01:06am 26.7 21.1 13.4 43 8.0 NNE 35 57 19 31 1013.8 1010.9 0.8
11/01:00am 26.6 20.6 13.3 43 8.0 NE 37 54 20 29 1013.8 1010.9 0.8
11/12:33am 25.7 21.0 14.8 51 6.7 NE 33 56 18 30 1013.1 1010.1 0.8
11/12:30am 25.3 21.0 15.3 54 6.2 ENE 32 43 17 23 1013.2 1010.2 0.8
11/12:21am 24.9 19.3 15.5 56 5.8 ENE 39 57 21 31 1013.4 1010.4 0.8
11/12:00am 24.7 18.5 15.9 58 5.5 ENE 43 57 23 31 1013.0 1010.0 0.8
 
Date/Time
WST
Temp
°C
App
Temp
°C
Dew
Point
°C
Rel
Hum
%
Delta-T
°C
Wind Press
QNH
hPa
Press
MSL
hPa
Rain since
9am
mm
Dir  Spd
km/h
Gust
km/h
Spd
kts
Gust
kts
10/11:57pm 24.4 18.6 15.9 59 5.3 ENE 41 57 22 31 1013.1 1010.1 0.8
10/11:38pm 24.7 19.3 15.9 58 5.5 NNE 39 57 21 31 1015.2 1012.2 0.8
10/11:30pm 25.0 19.2 15.9 57 5.6 NE 41 57 22 31 1015.3 1012.3 0.8
10/11:14pm 25.3 19.7 15.6 55 6.0 NE 39 59 21 32 1015.6 1012.7 0.8
10/11:00pm 24.4 20.0 16.6 61 4.9 NE 35 48 19 26 1015.9 1013.0 0.8
10/10:56pm 24.7 21.7 16.9 62 4.9 NE 28 46 15 25 1016.3 1013.4 0.6
10/10:30pm 23.1 24.9 18.8 77 2.8 ENE 7 17 4 9 1018.2 1015.3 0.6
10/10:00pm 26.9 27.3 15.3 49 7.2 NW 7 11 4 6 1017.6 1014.7 0.0
10/09:30pm 28.0 27.2 13.9 42 8.6 NW 11 17 6 9 1017.2 1014.2 0.0
10/09:00pm 28.1 27.4 13.2 39 9.0 N 9 13 5 7 1016.9 1013.9 0.0
10/08:30pm 29.0 27.8 12.8 36 9.7 NW 11 17 6 9 1017.0 1014.0 0.0
10/08:00pm 29.4 26.5 12.8 36 10.0 NNE 20 28 11 15 1016.5 1013.5 0.0
10/07:30pm 30.0 27.6 11.5 32 10.9 ENE 15 20 8 11 1015.7 1012.8 0.0
10/07:00pm 31.6 27.6 10.3 27 12.4 N 22 33 12 18 1015.5 1012.5 0.0
10/06:30pm 32.3 28.3 9.2 24 13.3 NE 20 37 11 20 1014.9 1011.9 0.0
10/06:00pm 32.5 26.6 7.4 21 14.1 SE 28 43 15 23 1013.7 1010.8 0.0
10/05:30pm 32.5 26.0 6.7 20 14.3 SE 30 39 16 21 1013.4 1010.4 0.0
10/05:00pm 32.8 28.1 6.2 19 14.6 SE 20 30 11 16 1013.6 1010.6 0.0
10/04:30pm 33.1 27.0 6.4 19 14.8 SE 28 35 15 19 1013.1 1010.1 0.0
10/04:00pm 33.1 26.4 5.6 18 15.0 SE 30 39 16 21 1012.7 1009.7 0.0
10/03:30pm 32.8 25.5 5.4 18 14.9 SE 33 43 18 23 1012.8 1009.8 0.0
10/03:00pm 33.0 26.1 6.3 19 14.7 SE 32 41 17 22 1013.0 1010.0 0.0
10/02:30pm 33.1 26.8 5.6 18 15.0 SSE 28 39 15 21 1013.5 1010.5 0.0
10/02:00pm 31.9 27.4 6.9 21 13.8 SSE 20 30 11 16 1013.7 1010.8 0.0
10/01:30pm 31.6 27.2 10.3 27 12.4 SE 24 33 13 18 1013.9 1011.0 0.0
10/01:00pm 34.1 27.1 1.8 13 16.7 ESE 28 39 15 21 1013.7 1010.8 0.0
10/12:30pm 35.3 28.2 1.6 12 17.5 ESE 28 39 15 21 1013.9 1011.0 0.0
10/12:00pm 32.9 25.7 0.9 13 16.2 ESE 28 37 15 20 1014.5 1011.5 0.0
10/11:30am 31.8 23.7 1.0 14 15.5 E 33 44 18 24 1014.7 1011.7 0.0
10/11:00am 31.7 23.2 1.0 14 15.4 E 35 44 19 24 1014.8 1011.8 0.0
10/10:30am 31.4 24.2 0.7 14 15.3 ENE 28 39 15 21 1015.4 1012.4 0.0
10/10:00am 31.2 23.1 -0.5 13 15.5 E 32 39 17 21 1015.3 1012.3 0.0
10/09:30am 30.7 22.0 -0.8 13 15.2 ENE 35 46 19 25 1015.6 1012.7 0.0
10/09:00am 30.5 22.3 -1.0 13 15.2 E 32 43 17 23 1015.5 1012.5 0.2
10/08:30am 29.8 22.0 -0.5 14 14.6 E 30 43 16 23 1015.7 1012.8 0.2
10/08:00am 29.5 22.6 0.2 15 14.3 E 26 35 14 19 1015.7 1012.8 0.2
10/07:30am 28.4 22.0 1.0 17 13.5 E 24 33 13 18 1015.7 1012.8 0.2
10/07:00am 27.3 20.9 0.9 18 12.8 E 24 30 13 16 1015.7 1012.8 0.2
10/06:30am 26.5 19.8 1.7 20 12.2 E 26 32 14 17 1015.6 1012.7 0.2
10/06:00am 26.3 20.5 2.3 21 11.9 E 22 28 12 15 1015.4 1012.4 0.2
10/05:30am 26.2 20.1 2.8 22 11.7 E 24 32 13 17 1014.9 1011.9 0.2
10/05:00am 26.0 20.4 3.3 23 11.4 ENE 22 28 12 15 1014.7 1011.7 0.2
10/04:30am 25.9 20.7 3.8 24 11.2 ENE 20 26 11 14 1014.6 1011.6 0.2
10/04:00am 26.4 20.8 3.6 23 11.6 ENE 22 32 12 17 1014.2 1011.2 0.2
10/03:30am 26.5 20.6 3.7 23 11.6 E 24 30 13 16 1013.7 1010.8 0.2
10/03:00am 26.5 20.8 4.9 25 11.2 E 24 30 13 16 1013.5 1010.5 0.2
10/02:30am 26.1 21.0 6.2 28 10.6 E 22 28 12 15 1013.7 1010.8 0.2
10/02:00am 25.7 20.5 7.3 31 9.9 E 24 30 13 16 1013.4 1010.4 0.2
10/01:30am 25.2 20.5 7.8 33 9.4 E 22 26 12 14 1014.2 1011.2 0.2
10/01:00am 25.5 21.3 8.1 33 9.5 E 20 30 11 16 1014.9 1011.9 0.2
10/12:30am 25.0 19.7 8.5 35 9.1 ESE 26 32 14 17 1014.6 1011.6 0.2
10/12:00am 24.1 19.8 10.7 43 7.6 ESE 24 30 13 16 1015.9 1013.0 0.2
 
Date/Time
WST
Temp
°C
App
Temp
°C
Dew
Point
°C
Rel
Hum
%
Delta-T
°C
Wind Press
QNH
hPa
Press
MSL
hPa
Rain since
9am
mm
Dir  Spd
km/h
Gust
km/h
Spd
kts
Gust
kts
09/11:30pm 26.0 21.7 8.0 32 9.8 ENE 20 32 11 17 1016.8 1013.8 0.0
09/11:00pm 24.8 25.0 11.7 44 7.6 NNE 2 9 1 5 1017.1 1014.1 0.0
09/10:30pm 24.5 23.0 13.1 49 6.7 ESE 13 19 7 10 1017.2 1014.2 0.0

Other Formats:

Comma delimited format used in spreadsheet applications
http://www.bom.gov.au/fwo/IDW60801/IDW60801.94449.axf

JavaScript Object Notation format (JSON) in row-major order
http://www.bom.gov.au/fwo/IDW60801/IDW60801.94449.json